sensor_id;sensor_type;location;lat;lon;timestamp;P1;durP1;ratioP1;P2;durP2;ratioP2
4313;SDS011;2170;48.794;9.182;2024-03-29T00:00:54;3.20;;;2.90;;
4313;SDS011;2170;48.794;9.182;2024-03-29T00:03:20;3.43;;;2.03;;
4313;SDS011;2170;48.794;9.182;2024-03-29T00:05:46;4.07;;;2.77;;
4313;SDS011;2170;48.794;9.182;2024-03-29T00:08:12;4.87;;;2.87;;
4313;SDS011;2170;48.794;9.182;2024-03-29T00:10:39;3.00;;;2.70;;
4313;SDS011;2170;48.794;9.182;2024-03-29T00:13:05;5.37;;;3.00;;
4313;SDS011;2170;48.794;9.182;2024-03-29T00:15:31;6.23;;;2.90;;
4313;SDS011;2170;48.794;9.182;2024-03-29T00:17:57;5.20;;;2.87;;
4313;SDS011;2170;48.794;9.182;2024-03-29T00:20:22;2.67;;;2.47;;
4313;SDS011;2170;48.794;9.182;2024-03-29T00:22:48;2.40;;;2.20;;
4313;SDS011;2170;48.794;9.182;2024-03-29T00:25:14;8.43;;;2.70;;
4313;SDS011;2170;48.794;9.182;2024-03-29T00:27:42;3.30;;;2.87;;
4313;SDS011;2170;48.794;9.182;2024-03-29T00:30:08;3.07;;;2.50;;
4313;SDS011;2170;48.794;9.182;2024-03-29T00:32:34;2.50;;;2.30;;
4313;SDS011;2170;48.794;9.182;2024-03-29T00:35:00;3.23;;;2.60;;
4313;SDS011;2170;48.794;9.182;2024-03-29T00:37:26;2.60;;;2.37;;
4313;SDS011;2170;48.794;9.182;2024-03-29T00:39:51;2.80;;;2.60;;
4313;SDS011;2170;48.794;9.182;2024-03-29T00:42:17;2.90;;;2.70;;
4313;SDS011;2170;48.794;9.182;2024-03-29T00:44:44;3.53;;;1.97;;
4313;SDS011;2170;48.794;9.182;2024-03-29T00:47:10;2.83;;;1.80;;
4313;SDS011;2170;48.794;9.182;2024-03-29T00:49:36;2.37;;;2.17;;
4313;SDS011;2170;48.794;9.182;2024-03-29T00:52:02;2.33;;;2.17;;
4313;SDS011;2170;48.794;9.182;2024-03-29T00:54:29;2.03;;;1.80;;
4313;SDS011;2170;48.794;9.182;2024-03-29T00:56:55;2.10;;;1.90;;
4313;SDS011;2170;48.794;9.182;2024-03-29T00:59:21;3.10;;;2.00;;
4313;SDS011;2170;48.794;9.182;2024-03-29T01:01:48;2.00;;;1.80;;
4313;SDS011;2170;48.794;9.182;2024-03-29T01:04:14;2.17;;;2.07;;
4313;SDS011;2170;48.794;9.182;2024-03-29T01:06:40;1.90;;;1.80;;
4313;SDS011;2170;48.794;9.182;2024-03-29T01:09:06;5.30;;;1.80;;
4313;SDS011;2170;48.794;9.182;2024-03-29T01:11:32;2.10;;;1.90;;
4313;SDS011;2170;48.794;9.182;2024-03-29T01:13:58;3.07;;;2.23;;
4313;SDS011;2170;48.794;9.182;2024-03-29T01:16:24;2.33;;;2.13;;
4313;SDS011;2170;48.794;9.182;2024-03-29T01:18:51;2.20;;;2.10;;
4313;SDS011;2170;48.794;9.182;2024-03-29T01:21:17;2.50;;;2.10;;
4313;SDS011;2170;48.794;9.182;2024-03-29T01:23:43;3.27;;;3.03;;
4313;SDS011;2170;48.794;9.182;2024-03-29T01:26:09;3.03;;;2.50;;
4313;SDS011;2170;48.794;9.182;2024-03-29T01:28:35;6.60;;;3.00;;
4313;SDS011;2170;48.794;9.182;2024-03-29T01:31:00;2.13;;;2.03;;
4313;SDS011;2170;48.794;9.182;2024-03-29T01:33:26;3.27;;;2.60;;
4313;SDS011;2170;48.794;9.182;2024-03-29T01:35:53;2.93;;;2.30;;
4313;SDS011;2170;48.794;9.182;2024-03-29T01:38:19;4.27;;;2.10;;
4313;SDS011;2170;48.794;9.182;2024-03-29T01:40:45;2.23;;;2.03;;
4313;SDS011;2170;48.794;9.182;2024-03-29T01:43:11;2.17;;;2.07;;
4313;SDS011;2170;48.794;9.182;2024-03-29T01:45:38;1.90;;;1.80;;
4313;SDS011;2170;48.794;9.182;2024-03-29T01:48:05;2.13;;;2.03;;
4313;SDS011;2170;48.794;9.182;2024-03-29T01:50:33;1.87;;;1.77;;
4313;SDS011;2170;48.794;9.182;2024-03-29T01:53:02;2.47;;;1.83;;
4313;SDS011;2170;48.794;9.182;2024-03-29T01:55:29;2.50;;;2.00;;
4313;SDS011;2170;48.794;9.182;2024-03-29T01:57:56;1.80;;;1.70;;
4313;SDS011;2170;48.794;9.182;2024-03-29T02:00:23;1.97;;;1.83;;
4313;SDS011;2170;48.794;9.182;2024-03-29T02:02:51;1.83;;;1.73;;
4313;SDS011;2170;48.794;9.182;2024-03-29T02:05:19;2.40;;;1.67;;
4313;SDS011;2170;48.794;9.182;2024-03-29T02:07:46;2.37;;;2.17;;
4313;SDS011;2170;48.794;9.182;2024-03-29T02:10:14;2.37;;;2.17;;
4313;SDS011;2170;48.794;9.182;2024-03-29T02:12:41;2.63;;;2.27;;
4313;SDS011;2170;48.794;9.182;2024-03-29T02:15:08;2.20;;;2.10;;
4313;SDS011;2170;48.794;9.182;2024-03-29T02:17:41;2.30;;;2.10;;
4313;SDS011;2170;48.794;9.182;2024-03-29T02:20:08;2.53;;;2.00;;
4313;SDS011;2170;48.794;9.182;2024-03-29T02:22:36;2.17;;;1.97;;
4313;SDS011;2170;48.794;9.182;2024-03-29T02:25:08;1.93;;;1.60;;
4313;SDS011;2170;48.794;9.182;2024-03-29T02:27:35;3.23;;;1.80;;
4313;SDS011;2170;48.794;9.182;2024-03-29T02:30:02;2.30;;;1.70;;
4313;SDS011;2170;48.794;9.182;2024-03-29T02:32:29;1.40;;;1.30;;
4313;SDS011;2170;48.794;9.182;2024-03-29T02:34:55;1.80;;;1.70;;
4313;SDS011;2170;48.794;9.182;2024-03-29T02:37:22;2.10;;;1.53;;
4313;SDS011;2170;48.794;9.182;2024-03-29T02:39:49;1.60;;;1.50;;
4313;SDS011;2170;48.794;9.182;2024-03-29T02:42:17;2.23;;;1.33;;
4313;SDS011;2170;48.794;9.182;2024-03-29T02:44:45;1.60;;;1.43;;
4313;SDS011;2170;48.794;9.182;2024-03-29T02:47:12;2.13;;;1.40;;
4313;SDS011;2170;48.794;9.182;2024-03-29T02:49:39;1.77;;;1.57;;
4313;SDS011;2170;48.794;9.182;2024-03-29T02:52:05;1.60;;;1.50;;
4313;SDS011;2170;48.794;9.182;2024-03-29T02:54:32;1.70;;;1.60;;
4313;SDS011;2170;48.794;9.182;2024-03-29T02:56:58;1.70;;;1.60;;
4313;SDS011;2170;48.794;9.182;2024-03-29T02:59:26;1.43;;;1.30;;
4313;SDS011;2170;48.794;9.182;2024-03-29T03:01:52;1.70;;;1.60;;
4313;SDS011;2170;48.794;9.182;2024-03-29T03:04:19;2.40;;;1.70;;
4313;SDS011;2170;48.794;9.182;2024-03-29T03:06:44;1.30;;;1.30;;
4313;SDS011;2170;48.794;9.182;2024-03-29T03:09:11;1.70;;;1.60;;
4313;SDS011;2170;48.794;9.182;2024-03-29T03:11:55;1.33;;;1.10;;
4313;SDS011;2170;48.794;9.182;2024-03-29T03:14:22;1.70;;;1.20;;
4313;SDS011;2170;48.794;9.182;2024-03-29T03:16:50;4.80;;;1.60;;
4313;SDS011;2170;48.794;9.182;2024-03-29T03:19:17;1.70;;;1.60;;
4313;SDS011;2170;48.794;9.182;2024-03-29T03:21:43;1.20;;;1.20;;
4313;SDS011;2170;48.794;9.182;2024-03-29T03:24:09;1.60;;;1.50;;
4313;SDS011;2170;48.794;9.182;2024-03-29T03:26:37;1.40;;;1.30;;
4313;SDS011;2170;48.794;9.182;2024-03-29T03:29:03;0.97;;;0.97;;
4313;SDS011;2170;48.794;9.182;2024-03-29T03:31:29;1.50;;;1.40;;
4313;SDS011;2170;48.794;9.182;2024-03-29T03:33:57;1.43;;;1.20;;
4313;SDS011;2170;48.794;9.182;2024-03-29T03:36:23;1.00;;;1.00;;
4313;SDS011;2170;48.794;9.182;2024-03-29T03:38:50;1.23;;;1.03;;
4313;SDS011;2170;48.794;9.182;2024-03-29T03:41:15;1.27;;;1.17;;
4313;SDS011;2170;48.794;9.182;2024-03-29T03:43:42;1.00;;;1.00;;
4313;SDS011;2170;48.794;9.182;2024-03-29T03:46:08;1.73;;;1.17;;
4313;SDS011;2170;48.794;9.182;2024-03-29T03:48:35;1.40;;;1.00;;
4313;SDS011;2170;48.794;9.182;2024-03-29T03:51:02;1.80;;;1.23;;
4313;SDS011;2170;48.794;9.182;2024-03-29T03:53:29;1.30;;;1.10;;
4313;SDS011;2170;48.794;9.182;2024-03-29T03:55:55;1.10;;;0.93;;
4313;SDS011;2170;48.794;9.182;2024-03-29T03:58:22;1.20;;;0.90;;
4313;SDS011;2170;48.794;9.182;2024-03-29T04:00:47;1.10;;;1.10;;
4313;SDS011;2170;48.794;9.182;2024-03-29T04:03:14;0.90;;;0.90;;
4313;SDS011;2170;48.794;9.182;2024-03-29T04:05:40;2.10;;;1.00;;
4313;SDS011;2170;48.794;9.182;2024-03-29T04:08:08;1.00;;;1.00;;
4313;SDS011;2170;48.794;9.182;2024-03-29T04:10:37;1.87;;;1.77;;
4313;SDS011;2170;48.794;9.182;2024-03-29T04:13:03;2.10;;;1.10;;
4313;SDS011;2170;48.794;9.182;2024-03-29T04:15:30;1.17;;;1.17;;
4313;SDS011;2170;48.794;9.182;2024-03-29T04:17:58;1.10;;;1.10;;
4313;SDS011;2170;48.794;9.182;2024-03-29T04:20:25;1.00;;;1.00;;
4313;SDS011;2170;48.794;9.182;2024-03-29T04:22:51;1.20;;;1.20;;
4313;SDS011;2170;48.794;9.182;2024-03-29T04:25:19;1.87;;;1.07;;
4313;SDS011;2170;48.794;9.182;2024-03-29T04:27:44;1.10;;;1.10;;
4313;SDS011;2170;48.794;9.182;2024-03-29T04:30:11;1.20;;;1.20;;
4313;SDS011;2170;48.794;9.182;2024-03-29T04:32:37;1.40;;;1.40;;
4313;SDS011;2170;48.794;9.182;2024-03-29T04:35:04;2.10;;;1.63;;
4313;SDS011;2170;48.794;9.182;2024-03-29T04:37:30;2.97;;;1.40;;
4313;SDS011;2170;48.794;9.182;2024-03-29T04:39:57;1.90;;;1.60;;
4313;SDS011;2170;48.794;9.182;2024-03-29T04:42:25;1.43;;;1.30;;
4313;SDS011;2170;48.794;9.182;2024-03-29T04:44:52;1.33;;;1.33;;
4313;SDS011;2170;48.794;9.182;2024-03-29T04:47:19;1.30;;;1.20;;
4313;SDS011;2170;48.794;9.182;2024-03-29T04:49:45;1.33;;;1.10;;
4313;SDS011;2170;48.794;9.182;2024-03-29T04:52:12;2.40;;;1.50;;
4313;SDS011;2170;48.794;9.182;2024-03-29T04:54:39;1.30;;;1.20;;
4313;SDS011;2170;48.794;9.182;2024-03-29T04:57:06;1.50;;;1.40;;
4313;SDS011;2170;48.794;9.182;2024-03-29T04:59:35;1.57;;;1.30;;
4313;SDS011;2170;48.794;9.182;2024-03-29T05:02:01;1.13;;;1.13;;
4313;SDS011;2170;48.794;9.182;2024-03-29T05:04:28;2.00;;;1.60;;
4313;SDS011;2170;48.794;9.182;2024-03-29T05:06:55;1.50;;;1.40;;
4313;SDS011;2170;48.794;9.182;2024-03-29T05:09:23;1.43;;;1.43;;
4313;SDS011;2170;48.794;9.182;2024-03-29T05:11:50;1.47;;;1.40;;
4313;SDS011;2170;48.794;9.182;2024-03-29T05:14:18;1.57;;;1.40;;
4313;SDS011;2170;48.794;9.182;2024-03-29T05:16:48;1.43;;;1.33;;
4313;SDS011;2170;48.794;9.182;2024-03-29T05:19:16;2.07;;;1.90;;
4313;SDS011;2170;48.794;9.182;2024-03-29T05:21:43;1.50;;;1.40;;
4313;SDS011;2170;48.794;9.182;2024-03-29T05:24:09;1.53;;;1.43;;
4313;SDS011;2170;48.794;9.182;2024-03-29T05:26:36;1.20;;;1.20;;
4313;SDS011;2170;48.794;9.182;2024-03-29T05:29:03;1.50;;;1.40;;
4313;SDS011;2170;48.794;9.182;2024-03-29T05:31:30;1.33;;;1.23;;
4313;SDS011;2170;48.794;9.182;2024-03-29T05:33:58;1.60;;;1.50;;
4313;SDS011;2170;48.794;9.182;2024-03-29T05:36:26;2.10;;;1.23;;
4313;SDS011;2170;48.794;9.182;2024-03-29T05:38:53;2.00;;;1.37;;
4313;SDS011;2170;48.794;9.182;2024-03-29T05:41:20;1.47;;;1.37;;
4313;SDS011;2170;48.794;9.182;2024-03-29T05:43:47;1.20;;;1.20;;
4313;SDS011;2170;48.794;9.182;2024-03-29T05:46:15;1.30;;;1.20;;
4313;SDS011;2170;48.794;9.182;2024-03-29T05:48:42;1.60;;;1.50;;
4313;SDS011;2170;48.794;9.182;2024-03-29T05:51:10;1.63;;;1.23;;
4313;SDS011;2170;48.794;9.182;2024-03-29T05:53:37;1.07;;;1.07;;
4313;SDS011;2170;48.794;9.182;2024-03-29T05:56:04;1.17;;;1.10;;
4313;SDS011;2170;48.794;9.182;2024-03-29T05:58:31;1.00;;;0.97;;
4313;SDS011;2170;48.794;9.182;2024-03-29T06:00:59;1.60;;;1.30;;
4313;SDS011;2170;48.794;9.182;2024-03-29T06:03:25;1.10;;;1.10;;
4313;SDS011;2170;48.794;9.182;2024-03-29T06:05:52;1.00;;;1.00;;
4313;SDS011;2170;48.794;9.182;2024-03-29T06:08:20;4.73;;;1.50;;
4313;SDS011;2170;48.794;9.182;2024-03-29T06:10:49;1.13;;;1.10;;
4313;SDS011;2170;48.794;9.182;2024-03-29T06:13:17;1.03;;;1.03;;
4313;SDS011;2170;48.794;9.182;2024-03-29T06:15:54;1.47;;;1.37;;
4313;SDS011;2170;48.794;9.182;2024-03-29T06:18:39;0.90;;;0.90;;
4313;SDS011;2170;48.794;9.182;2024-03-29T06:21:05;0.90;;;0.90;;
4313;SDS011;2170;48.794;9.182;2024-03-29T06:23:33;1.00;;;0.90;;
4313;SDS011;2170;48.794;9.182;2024-03-29T06:26:00;1.30;;;1.03;;
4313;SDS011;2170;48.794;9.182;2024-03-29T06:28:27;0.93;;;0.93;;
4313;SDS011;2170;48.794;9.182;2024-03-29T06:30:54;1.00;;;1.00;;
4313;SDS011;2170;48.794;9.182;2024-03-29T06:33:20;1.53;;;1.30;;
4313;SDS011;2170;48.794;9.182;2024-03-29T06:35:52;1.20;;;1.10;;
4313;SDS011;2170;48.794;9.182;2024-03-29T06:38:19;0.90;;;0.90;;
4313;SDS011;2170;48.794;9.182;2024-03-29T06:40:47;1.10;;;1.00;;
4313;SDS011;2170;48.794;9.182;2024-03-29T06:43:14;1.90;;;0.93;;
4313;SDS011;2170;48.794;9.182;2024-03-29T06:45:41;0.90;;;0.90;;
4313;SDS011;2170;48.794;9.182;2024-03-29T06:48:09;0.90;;;0.90;;
4313;SDS011;2170;48.794;9.182;2024-03-29T06:50:36;1.43;;;0.93;;
4313;SDS011;2170;48.794;9.182;2024-03-29T06:53:03;1.07;;;1.07;;
4313;SDS011;2170;48.794;9.182;2024-03-29T06:55:31;1.03;;;1.00;;
4313;SDS011;2170;48.794;9.182;2024-03-29T06:57:59;1.30;;;1.00;;
4313;SDS011;2170;48.794;9.182;2024-03-29T07:00:25;0.70;;;0.70;;
4313;SDS011;2170;48.794;9.182;2024-03-29T07:02:52;1.33;;;1.20;;
4313;SDS011;2170;48.794;9.182;2024-03-29T07:05:19;1.17;;;1.17;;
4313;SDS011;2170;48.794;9.182;2024-03-29T07:07:45;1.63;;;1.37;;
4313;SDS011;2170;48.794;9.182;2024-03-29T07:10:12;2.30;;;1.43;;
4313;SDS011;2170;48.794;9.182;2024-03-29T07:12:39;1.30;;;1.20;;
4313;SDS011;2170;48.794;9.182;2024-03-29T07:15:07;1.03;;;1.03;;
4313;SDS011;2170;48.794;9.182;2024-03-29T07:17:34;2.40;;;1.20;;
4313;SDS011;2170;48.794;9.182;2024-03-29T07:20:01;1.23;;;1.13;;
4313;SDS011;2170;48.794;9.182;2024-03-29T07:22:30;1.40;;;1.30;;
4313;SDS011;2170;48.794;9.182;2024-03-29T07:24:57;1.43;;;1.20;;
4313;SDS011;2170;48.794;9.182;2024-03-29T07:27:23;1.43;;;1.33;;
4313;SDS011;2170;48.794;9.182;2024-03-29T07:29:50;1.40;;;1.30;;
4313;SDS011;2170;48.794;9.182;2024-03-29T07:32:18;2.97;;;1.40;;
4313;SDS011;2170;48.794;9.182;2024-03-29T07:34:45;1.20;;;1.10;;
4313;SDS011;2170;48.794;9.182;2024-03-29T07:37:11;2.43;;;1.83;;
4313;SDS011;2170;48.794;9.182;2024-03-29T07:39:40;2.20;;;1.67;;
4313;SDS011;2170;48.794;9.182;2024-03-29T07:42:07;1.60;;;1.50;;
4313;SDS011;2170;48.794;9.182;2024-03-29T07:44:34;3.00;;;2.13;;
4313;SDS011;2170;48.794;9.182;2024-03-29T07:47:01;2.50;;;1.80;;
4313;SDS011;2170;48.794;9.182;2024-03-29T07:49:30;2.20;;;2.00;;
4313;SDS011;2170;48.794;9.182;2024-03-29T07:51:56;2.90;;;1.70;;
4313;SDS011;2170;48.794;9.182;2024-03-29T07:54:24;4.13;;;1.80;;
4313;SDS011;2170;48.794;9.182;2024-03-29T07:56:51;2.13;;;1.50;;
4313;SDS011;2170;48.794;9.182;2024-03-29T07:59:17;4.50;;;1.70;;
4313;SDS011;2170;48.794;9.182;2024-03-29T08:01:44;1.87;;;1.77;;
4313;SDS011;2170;48.794;9.182;2024-03-29T08:04:11;1.63;;;1.43;;
4313;SDS011;2170;48.794;9.182;2024-03-29T08:06:40;5.33;;;1.70;;
4313;SDS011;2170;48.794;9.182;2024-03-29T08:09:06;2.23;;;2.03;;
4313;SDS011;2170;48.794;9.182;2024-03-29T08:11:34;1.60;;;1.50;;
4313;SDS011;2170;48.794;9.182;2024-03-29T08:14:01;1.70;;;1.60;;
4313;SDS011;2170;48.794;9.182;2024-03-29T08:16:28;2.97;;;1.57;;
4313;SDS011;2170;48.794;9.182;2024-03-29T08:18:54;2.93;;;2.07;;
4313;SDS011;2170;48.794;9.182;2024-03-29T08:21:21;2.43;;;1.87;;
4313;SDS011;2170;48.794;9.182;2024-03-29T08:23:49;3.00;;;1.57;;
4313;SDS011;2170;48.794;9.182;2024-03-29T08:26:16;2.60;;;1.93;;
4313;SDS011;2170;48.794;9.182;2024-03-29T08:28:44;1.80;;;1.70;;
4313;SDS011;2170;48.794;9.182;2024-03-29T08:31:11;2.20;;;2.03;;
4313;SDS011;2170;48.794;9.182;2024-03-29T08:33:38;4.80;;;1.80;;
4313;SDS011;2170;48.794;9.182;2024-03-29T08:36:05;1.93;;;1.50;;
4313;SDS011;2170;48.794;9.182;2024-03-29T08:38:33;1.50;;;1.40;;
4313;SDS011;2170;48.794;9.182;2024-03-29T08:41:01;1.50;;;1.40;;
4313;SDS011;2170;48.794;9.182;2024-03-29T08:43:28;1.50;;;1.40;;
4313;SDS011;2170;48.794;9.182;2024-03-29T08:45:54;1.60;;;1.37;;
4313;SDS011;2170;48.794;9.182;2024-03-29T08:48:23;2.23;;;1.90;;
4313;SDS011;2170;48.794;9.182;2024-03-29T08:50:50;3.87;;;1.50;;
4313;SDS011;2170;48.794;9.182;2024-03-29T08:53:17;1.70;;;1.60;;
4313;SDS011;2170;48.794;9.182;2024-03-29T08:55:45;1.73;;;1.50;;
4313;SDS011;2170;48.794;9.182;2024-03-29T08:58:14;2.20;;;2.10;;
4313;SDS011;2170;48.794;9.182;2024-03-29T09:00:42;1.50;;;1.40;;
4313;SDS011;2170;48.794;9.182;2024-03-29T09:03:09;3.03;;;1.90;;
4313;SDS011;2170;48.794;9.182;2024-03-29T09:05:36;2.20;;;2.00;;
4313;SDS011;2170;48.794;9.182;2024-03-29T09:08:02;2.33;;;2.07;;
4313;SDS011;2170;48.794;9.182;2024-03-29T09:10:30;4.20;;;1.87;;
4313;SDS011;2170;48.794;9.182;2024-03-29T09:12:56;2.00;;;1.70;;
4313;SDS011;2170;48.794;9.182;2024-03-29T09:15:24;1.50;;;1.40;;
4313;SDS011;2170;48.794;9.182;2024-03-29T09:17:51;1.90;;;1.77;;
4313;SDS011;2170;48.794;9.182;2024-03-29T09:20:20;2.80;;;2.23;;
4313;SDS011;2170;48.794;9.182;2024-03-29T09:22:49;2.90;;;2.03;;
4313;SDS011;2170;48.794;9.182;2024-03-29T09:25:16;2.37;;;2.20;;
4313;SDS011;2170;48.794;9.182;2024-03-29T09:27:44;2.23;;;1.70;;
4313;SDS011;2170;48.794;9.182;2024-03-29T09:30:13;2.97;;;2.47;;
4313;SDS011;2170;48.794;9.182;2024-03-29T09:32:42;2.03;;;1.93;;
4313;SDS011;2170;48.794;9.182;2024-03-29T09:35:08;2.93;;;1.80;;
4313;SDS011;2170;48.794;9.182;2024-03-29T09:37:35;2.10;;;2.00;;
4313;SDS011;2170;48.794;9.182;2024-03-29T09:40:03;2.10;;;1.90;;
4313;SDS011;2170;48.794;9.182;2024-03-29T09:42:31;2.13;;;1.97;;
4313;SDS011;2170;48.794;9.182;2024-03-29T09:44:59;2.00;;;1.90;;
4313;SDS011;2170;48.794;9.182;2024-03-29T09:47:28;4.90;;;4.03;;
4313;SDS011;2170;48.794;9.182;2024-03-29T09:49:57;2.73;;;2.47;;
4313;SDS011;2170;48.794;9.182;2024-03-29T09:52:25;2.57;;;2.37;;
4313;SDS011;2170;48.794;9.182;2024-03-29T09:54:52;4.50;;;2.60;;
4313;SDS011;2170;48.794;9.182;2024-03-29T09:57:21;2.47;;;2.37;;
4313;SDS011;2170;48.794;9.182;2024-03-29T09:59:49;2.57;;;2.37;;
4313;SDS011;2170;48.794;9.182;2024-03-29T10:02:16;3.50;;;3.20;;
4313;SDS011;2170;48.794;9.182;2024-03-29T10:04:43;3.87;;;3.03;;
4313;SDS011;2170;48.794;9.182;2024-03-29T10:07:13;3.17;;;2.80;;
4313;SDS011;2170;48.794;9.182;2024-03-29T10:09:41;3.03;;;2.80;;
4313;SDS011;2170;48.794;9.182;2024-03-29T10:12:09;3.10;;;2.80;;
4313;SDS011;2170;48.794;9.182;2024-03-29T10:14:43;3.00;;;2.80;;
4313;SDS011;2170;48.794;9.182;2024-03-29T10:17:14;3.83;;;3.30;;
4313;SDS011;2170;48.794;9.182;2024-03-29T10:19:41;4.17;;;3.77;;
4313;SDS011;2170;48.794;9.182;2024-03-29T10:22:08;3.20;;;3.00;;
4313;SDS011;2170;48.794;9.182;2024-03-29T10:24:36;5.47;;;3.40;;
4313;SDS011;2170;48.794;9.182;2024-03-29T10:27:03;3.60;;;3.30;;
4313;SDS011;2170;48.794;9.182;2024-03-29T10:29:30;3.80;;;3.50;;
4313;SDS011;2170;48.794;9.182;2024-03-29T10:31:57;4.53;;;3.33;;
4313;SDS011;2170;48.794;9.182;2024-03-29T10:34:24;3.97;;;2.40;;
4313;SDS011;2170;48.794;9.182;2024-03-29T10:36:51;2.87;;;2.43;;
4313;SDS011;2170;48.794;9.182;2024-03-29T10:39:17;3.33;;;3.13;;
4313;SDS011;2170;48.794;9.182;2024-03-29T10:41:46;2.70;;;2.60;;
4313;SDS011;2170;48.794;9.182;2024-03-29T10:44:14;3.00;;;2.80;;
4313;SDS011;2170;48.794;9.182;2024-03-29T10:46:40;2.90;;;2.70;;
4313;SDS011;2170;48.794;9.182;2024-03-29T10:49:08;3.47;;;3.17;;
4313;SDS011;2170;48.794;9.182;2024-03-29T10:51:36;3.73;;;2.73;;
4313;SDS011;2170;48.794;9.182;2024-03-29T10:54:04;3.30;;;3.00;;
4313;SDS011;2170;48.794;9.182;2024-03-29T10:56:32;3.50;;;3.23;;
4313;SDS011;2170;48.794;9.182;2024-03-29T10:59:03;2.70;;;2.50;;
4313;SDS011;2170;48.794;9.182;2024-03-29T11:01:37;2.47;;;2.37;;
4313;SDS011;2170;48.794;9.182;2024-03-29T11:04:09;4.47;;;2.70;;
4313;SDS011;2170;48.794;9.182;2024-03-29T11:06:39;3.23;;;3.00;;
4313;SDS011;2170;48.794;9.182;2024-03-29T11:09:07;2.37;;;2.27;;
4313;SDS011;2170;48.794;9.182;2024-03-29T11:11:39;3.20;;;3.00;;
4313;SDS011;2170;48.794;9.182;2024-03-29T11:14:11;3.10;;;2.73;;
4313;SDS011;2170;48.794;9.182;2024-03-29T11:16:42;3.10;;;2.70;;
4313;SDS011;2170;48.794;9.182;2024-03-29T11:19:11;2.40;;;2.17;;
4313;SDS011;2170;48.794;9.182;2024-03-29T11:21:40;4.43;;;2.50;;
4313;SDS011;2170;48.794;9.182;2024-03-29T11:24:08;3.63;;;2.67;;
4313;SDS011;2170;48.794;9.182;2024-03-29T11:26:36;2.73;;;2.53;;
4313;SDS011;2170;48.794;9.182;2024-03-29T11:29:03;3.40;;;2.43;;
4313;SDS011;2170;48.794;9.182;2024-03-29T11:31:31;2.30;;;2.20;;
4313;SDS011;2170;48.794;9.182;2024-03-29T11:34:08;2.70;;;2.40;;
4313;SDS011;2170;48.794;9.182;2024-03-29T11:36:35;3.20;;;2.90;;
4313;SDS011;2170;48.794;9.182;2024-03-29T11:39:05;2.70;;;2.50;;
4313;SDS011;2170;48.794;9.182;2024-03-29T11:41:33;3.00;;;2.90;;
4313;SDS011;2170;48.794;9.182;2024-03-29T11:43:59;3.27;;;3.07;;
4313;SDS011;2170;48.794;9.182;2024-03-29T11:46:26;3.50;;;3.23;;
4313;SDS011;2170;48.794;9.182;2024-03-29T11:48:59;3.27;;;3.00;;
4313;SDS011;2170;48.794;9.182;2024-03-29T11:51:26;3.53;;;3.23;;
4313;SDS011;2170;48.794;9.182;2024-03-29T11:53:53;3.27;;;3.07;;
4313;SDS011;2170;48.794;9.182;2024-03-29T11:56:20;3.50;;;3.20;;
4313;SDS011;2170;48.794;9.182;2024-03-29T11:58:47;3.17;;;2.97;;
4313;SDS011;2170;48.794;9.182;2024-03-29T12:01:15;2.90;;;2.70;;
4313;SDS011;2170;48.794;9.182;2024-03-29T12:03:42;3.67;;;3.37;;
4313;SDS011;2170;48.794;9.182;2024-03-29T12:06:11;4.00;;;3.17;;
4313;SDS011;2170;48.794;9.182;2024-03-29T12:08:39;5.50;;;3.10;;
4313;SDS011;2170;48.794;9.182;2024-03-29T12:11:07;4.60;;;2.77;;
4313;SDS011;2170;48.794;9.182;2024-03-29T12:13:34;3.17;;;2.90;;
4313;SDS011;2170;48.794;9.182;2024-03-29T12:16:01;2.57;;;2.47;;
4313;SDS011;2170;48.794;9.182;2024-03-29T12:18:28;8.30;;;3.33;;
4313;SDS011;2170;48.794;9.182;2024-03-29T12:20:56;3.20;;;2.67;;
4313;SDS011;2170;48.794;9.182;2024-03-29T12:23:25;2.83;;;2.63;;
4313;SDS011;2170;48.794;9.182;2024-03-29T12:25:53;4.17;;;2.20;;
4313;SDS011;2170;48.794;9.182;2024-03-29T12:28:22;3.40;;;2.90;;
4313;SDS011;2170;48.794;9.182;2024-03-29T12:30:50;2.73;;;2.50;;
4313;SDS011;2170;48.794;9.182;2024-03-29T12:33:18;2.50;;;2.30;;
4313;SDS011;2170;48.794;9.182;2024-03-29T12:35:46;2.57;;;2.37;;
4313;SDS011;2170;48.794;9.182;2024-03-29T12:38:14;2.90;;;2.53;;
4313;SDS011;2170;48.794;9.182;2024-03-29T12:40:43;3.20;;;2.70;;
4313;SDS011;2170;48.794;9.182;2024-03-29T12:43:12;2.60;;;2.20;;
4313;SDS011;2170;48.794;9.182;2024-03-29T12:45:42;1.90;;;1.80;;
4313;SDS011;2170;48.794;9.182;2024-03-29T12:48:09;1.80;;;1.70;;
4313;SDS011;2170;48.794;9.182;2024-03-29T12:50:39;3.90;;;2.03;;
4313;SDS011;2170;48.794;9.182;2024-03-29T12:53:07;2.30;;;2.00;;
4313;SDS011;2170;48.794;9.182;2024-03-29T12:55:35;2.67;;;2.00;;
4313;SDS011;2170;48.794;9.182;2024-03-29T12:58:05;2.27;;;2.07;;
4313;SDS011;2170;48.794;9.182;2024-03-29T13:00:34;2.20;;;2.00;;
4313;SDS011;2170;48.794;9.182;2024-03-29T13:03:01;2.27;;;2.03;;
4313;SDS011;2170;48.794;9.182;2024-03-29T13:05:28;2.00;;;1.77;;
4313;SDS011;2170;48.794;9.182;2024-03-29T13:07:59;1.27;;;1.23;;
4313;SDS011;2170;48.794;9.182;2024-03-29T13:10:26;1.57;;;1.47;;
4313;SDS011;2170;48.794;9.182;2024-03-29T13:12:52;1.67;;;1.57;;
4313;SDS011;2170;48.794;9.182;2024-03-29T13:15:21;1.67;;;1.57;;
4313;SDS011;2170;48.794;9.182;2024-03-29T13:17:50;1.60;;;1.50;;
4313;SDS011;2170;48.794;9.182;2024-03-29T13:20:17;1.10;;;1.10;;
4313;SDS011;2170;48.794;9.182;2024-03-29T13:22:45;1.27;;;1.17;;
4313;SDS011;2170;48.794;9.182;2024-03-29T13:25:14;1.33;;;1.23;;
4313;SDS011;2170;48.794;9.182;2024-03-29T13:27:42;1.17;;;1.10;;
4313;SDS011;2170;48.794;9.182;2024-03-29T13:30:10;1.30;;;1.20;;
4313;SDS011;2170;48.794;9.182;2024-03-29T13:32:40;1.17;;;1.07;;
4313;SDS011;2170;48.794;9.182;2024-03-29T13:35:07;1.13;;;0.83;;
4313;SDS011;2170;48.794;9.182;2024-03-29T13:37:36;1.03;;;0.93;;
4313;SDS011;2170;48.794;9.182;2024-03-29T13:40:03;0.83;;;0.83;;
4313;SDS011;2170;48.794;9.182;2024-03-29T13:42:31;1.13;;;1.10;;
4313;SDS011;2170;48.794;9.182;2024-03-29T13:44:58;1.50;;;1.40;;
4313;SDS011;2170;48.794;9.182;2024-03-29T13:47:25;2.17;;;1.50;;
4313;SDS011;2170;48.794;9.182;2024-03-29T13:49:53;1.53;;;1.10;;
4313;SDS011;2170;48.794;9.182;2024-03-29T13:52:21;2.37;;;1.63;;
4313;SDS011;2170;48.794;9.182;2024-03-29T13:54:49;4.73;;;1.33;;
4313;SDS011;2170;48.794;9.182;2024-03-29T13:57:15;1.27;;;1.17;;
4313;SDS011;2170;48.794;9.182;2024-03-29T13:59:43;1.40;;;1.30;;
4313;SDS011;2170;48.794;9.182;2024-03-29T14:02:10;1.30;;;1.20;;
4313;SDS011;2170;48.794;9.182;2024-03-29T14:04:38;1.20;;;1.20;;
4313;SDS011;2170;48.794;9.182;2024-03-29T14:07:07;1.60;;;1.40;;
4313;SDS011;2170;48.794;9.182;2024-03-29T14:09:35;2.40;;;2.13;;
4313;SDS011;2170;48.794;9.182;2024-03-29T14:12:05;1.20;;;1.13;;
4313;SDS011;2170;48.794;9.182;2024-03-29T14:14:32;1.57;;;1.47;;
4313;SDS011;2170;48.794;9.182;2024-03-29T14:16:58;2.97;;;2.50;;
4313;SDS011;2170;48.794;9.182;2024-03-29T14:19:29;2.03;;;1.30;;
4313;SDS011;2170;48.794;9.182;2024-03-29T14:21:56;1.80;;;1.70;;
4313;SDS011;2170;48.794;9.182;2024-03-29T14:24:24;1.53;;;1.20;;
4313;SDS011;2170;48.794;9.182;2024-03-29T14:26:52;1.30;;;1.30;;
4313;SDS011;2170;48.794;9.182;2024-03-29T14:29:18;0.97;;;0.93;;
4313;SDS011;2170;48.794;9.182;2024-03-29T14:31:46;4.27;;;0.90;;
4313;SDS011;2170;48.794;9.182;2024-03-29T14:34:12;1.53;;;1.10;;
4313;SDS011;2170;48.794;9.182;2024-03-29T14:36:39;1.60;;;1.00;;
4313;SDS011;2170;48.794;9.182;2024-03-29T14:39:06;1.50;;;1.40;;
4313;SDS011;2170;48.794;9.182;2024-03-29T14:41:34;1.77;;;1.67;;
4313;SDS011;2170;48.794;9.182;2024-03-29T14:44:04;1.60;;;1.40;;
4313;SDS011;2170;48.794;9.182;2024-03-29T14:46:32;2.03;;;1.40;;
4313;SDS011;2170;48.794;9.182;2024-03-29T14:48:58;2.10;;;1.40;;
4313;SDS011;2170;48.794;9.182;2024-03-29T14:51:25;1.17;;;1.17;;
4313;SDS011;2170;48.794;9.182;2024-03-29T14:53:53;1.07;;;1.07;;
4313;SDS011;2170;48.794;9.182;2024-03-29T14:56:19;1.60;;;1.50;;
4313;SDS011;2170;48.794;9.182;2024-03-29T14:58:47;2.23;;;1.30;;
4313;SDS011;2170;48.794;9.182;2024-03-29T15:01:15;1.23;;;1.20;;
4313;SDS011;2170;48.794;9.182;2024-03-29T15:03:41;1.73;;;1.30;;
4313;SDS011;2170;48.794;9.182;2024-03-29T15:06:08;1.23;;;1.13;;
4313;SDS011;2170;48.794;9.182;2024-03-29T15:08:35;1.83;;;1.70;;
4313;SDS011;2170;48.794;9.182;2024-03-29T15:11:01;1.70;;;1.60;;
4313;SDS011;2170;48.794;9.182;2024-03-29T15:13:28;1.70;;;1.60;;
4313;SDS011;2170;48.794;9.182;2024-03-29T15:15:56;1.17;;;1.10;;